Time;durP1;ratioP1;P1;durP2;ratioP2;P2;SDS_P1;SDS_P2;PMS_P1;PMS_P2;Temp;Humidity;BMP_temperature;BMP_pressure;BME280_temperature;BME280_humidity;BME280_pressure;Samples;Min_cycle;Max_cycle;Signal;HPM_P1;HPM_P2
2024/01/16 00:01:45;;;;;;;4.03;2.45;;;5.80;99.90;;;;;;5090594;28;20099;-52
2024/01/16 00:04:11;;;;;;;21.42;15.30;;;5.80;99.90;;;;;;5087742;28;20032;-53
2024/01/16 00:06:41;;;;;;;14.10;9.65;;;5.80;99.90;;;;;;5063014;28;20055;-54
2024/01/16 00:09:07;;;;;;;25.17;18.35;;;5.80;99.90;;;;;;5090442;28;20052;-53
2024/01/16 00:11:33;;;;;;;26.63;21.20;;;5.70;99.90;;;;;;5059249;28;20090;-53
2024/01/16 00:13:58;;;;;;;24.38;18.65;;;5.60;99.90;;;;;;5057455;28;20033;-54
2024/01/16 00:16:25;;;;;;;34.05;22.48;;;5.50;99.90;;;;;;5058433;28;20040;-54
2024/01/16 00:18:50;;;;;;;24.42;18.27;;;5.50;99.90;;;;;;5058341;28;20029;-53
2024/01/16 00:21:16;;;;;;;8.57;6.57;;;5.40;99.90;;;;;;5057388;28;20037;-52
2024/01/16 00:23:42;;;;;;;9.18;7.35;;;5.20;99.90;;;;;;5056881;28;20721;-53
2024/01/16 00:26:07;;;;;;;7.15;5.80;;;5.20;99.90;;;;;;5041774;28;20036;-53
2024/01/16 00:28:33;;;;;;;18.58;14.32;;;4.90;99.90;;;;;;5056821;28;20028;-52
2024/01/16 00:30:59;;;;;;;8.65;6.80;;;4.80;99.90;;;;;;5040492;28;20028;-51
2024/01/16 00:33:27;;;;;;;4.50;3.42;;;4.90;99.90;;;;;;5058297;28;20115;-53
2024/01/16 00:35:52;;;;;;;5.68;4.18;;;4.90;99.90;;;;;;5041938;28;20167;-52
2024/01/16 00:38:18;;;;;;;5.00;3.88;;;4.90;99.90;;;;;;5007810;28;20124;-51
2024/01/16 00:40:44;;;;;;;7.70;5.90;;;5.00;99.90;;;;;;5055572;28;20023;-52
2024/01/16 00:43:09;;;;;;;4.40;3.65;;;5.10;99.90;;;;;;5081233;28;20035;-54
2024/01/16 00:45:36;;;;;;;6.63;4.72;;;;;;;;;;5090316;28;20066;-53
2024/01/16 00:48:02;;;;;;;6.38;4.13;;;4.80;99.90;;;;;;5087737;28;20036;-54
2024/01/16 00:50:29;;;;;;;7.68;5.10;;;4.60;99.90;;;;;;5062540;28;20034;-51
2024/01/16 00:52:55;;;;;;;4.55;3.88;;;;;;;;;;5087719;28;20123;-54
2024/01/16 00:55:21;;;;;;;4.18;2.72;;;4.40;99.90;;;;;;5090267;28;20102;-53
2024/01/16 00:57:47;;;;;;;5.30;4.20;;;;;;;;;;5090215;28;20020;-53
2024/01/16 01:00:13;;;;;;;3.10;2.45;;;4.80;99.90;;;;;;5087992;28;20164;-51
2024/01/16 01:02:39;;;;;;;2.15;1.73;;;;;;;;;;5090069;28;20431;-52
2024/01/16 01:05:07;;;;;;;2.60;1.90;;;;;;;;;;5091100;28;20062;-53
2024/01/16 01:07:33;;;;;;;1.92;1.40;;;;;;;;;;5091363;28;20020;-53
2024/01/16 01:09:59;;;;;;;1.77;1.58;;;;;;;;;;5093787;28;20103;-52
2024/01/16 01:12:26;;;;;;;3.03;2.55;;;;;;;;;;5094266;28;20032;-52
2024/01/16 01:14:51;;;;;;;2.92;2.63;;;4.90;99.90;;;;;;5086020;28;20036;-51
2024/01/16 01:17:18;;;;;;;2.70;2.50;;;;;;;;;;5091551;28;20028;-54
2024/01/16 01:19:46;;;;;;;3.17;2.50;;;4.90;99.90;;;;;;5093667;28;20456;-52
2024/01/16 01:22:12;;;;;;;2.50;2.30;;;4.80;99.90;;;;;;5091389;28;20036;-53
2024/01/16 01:24:38;;;;;;;3.83;3.20;;;4.90;99.90;;;;;;5074998;28;20115;-52
2024/01/16 01:27:04;;;;;;;3.53;3.20;;;5.00;99.90;;;;;;5094084;28;20138;-51
2024/01/16 01:29:29;;;;;;;4.18;3.78;;;5.00;99.90;;;;;;5091667;28;20497;-51
2024/01/16 01:31:55;;;;;;;5.22;4.45;;;4.90;99.90;;;;;;5094097;28;20027;-51
2024/01/16 01:34:21;;;;;;;3.35;2.65;;;4.90;99.90;;;;;;5092949;28;20040;-53
2024/01/16 01:36:47;;;;;;;3.80;3.13;;;4.90;99.90;;;;;;5053882;28;20067;-53
2024/01/16 01:39:12;;;;;;;4.85;4.00;;;4.80;99.90;;;;;;5071062;28;20067;-53
2024/01/16 01:41:39;;;;;;;6.65;5.45;;;4.80;99.90;;;;;;5070965;28;20480;-53
2024/01/16 01:44:06;;;;;;;3.25;2.25;;;4.80;99.90;;;;;;5071126;28;20033;-53
2024/01/16 01:46:34;;;;;;;3.47;3.05;;;4.90;99.90;;;;;;5070863;28;20036;-52
2024/01/16 01:49:00;;;;;;;3.10;2.80;;;4.80;99.90;;;;;;5071019;28;20032;-52
2024/01/16 01:51:26;;;;;;;3.67;2.83;;;4.70;99.90;;;;;;5070775;28;20062;-52
2024/01/16 01:53:53;;;;;;;4.22;3.53;;;4.80;99.90;;;;;;5070802;28;20598;-50
2024/01/16 01:56:20;;;;;;;2.58;2.03;;;4.60;99.90;;;;;;5070780;28;20050;-51
2024/01/16 01:58:48;;;;;;;2.67;1.70;;;4.60;99.90;;;;;;5070615;28;20032;-51
2024/01/16 02:01:15;;;;;;;2.50;2.00;;;;;;;;;;5070617;28;20036;-53
2024/01/16 02:03:45;;;;;;;2.42;2.20;;;;;;;;;;5070687;28;20039;-53
2024/01/16 02:06:15;;;;;;;1.98;1.77;;;4.80;99.90;;;;;;5070241;28;20101;-51
2024/01/16 02:08:41;;;;;;;1.90;1.20;;;5.00;99.90;;;;;;5108040;28;20075;-52
2024/01/16 02:11:07;;;;;;;5.35;4.78;;;;;;;;;;5113925;28;20052;-53
2024/01/16 02:13:33;;;;;;;9.07;7.22;;;5.00;99.90;;;;;;5060603;28;20036;-54
2024/01/16 02:15:59;;;;;;;12.25;11.07;;;4.90;99.90;;;;;;5113514;28;20027;-51
2024/01/16 02:18:25;;;;;;;4.22;3.10;;;4.90;99.90;;;;;;5043621;28;20442;-51
2024/01/16 02:20:51;;;;;;;2.13;1.70;;;4.90;99.90;;;;;;5113512;28;20104;-52
2024/01/16 02:23:28;;;;;;;2.67;1.60;;;4.90;99.90;;;;;;5113237;28;20053;-54
2024/01/16 02:25:54;;;;;;;2.58;2.17;;;4.90;99.90;;;;;;5113368;28;20106;-52
2024/01/16 02:28:20;;;;;;;1.60;1.27;;;4.90;99.90;;;;;;5113466;28;20509;-52
2024/01/16 02:30:46;;;;;;;1.65;1.15;;;4.90;99.90;;;;;;5060081;28;20075;-51
2024/01/16 02:33:12;;;;;;;2.20;1.70;;;4.80;99.90;;;;;;5113134;28;20028;-52
2024/01/16 02:35:38;;;;;;;2.35;2.00;;;4.80;99.90;;;;;;5112900;28;20479;-53
2024/01/16 02:38:04;;;;;;;2.53;1.80;;;4.80;99.90;;;;;;5089971;28;20048;-54
2024/01/16 02:40:30;;;;;;;2.20;1.90;;;4.80;99.90;;;;;;5090174;28;20050;-52
2024/01/16 02:42:56;;;;;;;1.85;1.60;;;4.90;99.90;;;;;;5089963;28;20122;-52
2024/01/16 02:45:22;;;;;;;2.35;1.88;;;4.80;99.90;;;;;;5090091;28;20535;-53
2024/01/16 02:47:48;;;;;;;2.88;2.53;;;4.80;99.90;;;;;;5089945;28;20035;-54
2024/01/16 02:50:14;;;;;;;2.28;1.85;;;4.80;99.90;;;;;;5056222;28;20077;-51
2024/01/16 02:52:40;;;;;;;3.58;1.88;;;4.70;99.90;;;;;;5056200;28;20121;-53
2024/01/16 02:55:06;;;;;;;7.65;4.38;;;4.70;99.90;;;;;;5089810;28;20028;-54
2024/01/16 02:57:32;;;;;;;2.53;2.00;;;4.70;99.90;;;;;;5055959;28;20036;-51
2024/01/16 02:59:58;;;;;;;3.95;2.35;;;;;;;;;;5089641;28;20068;-54
2024/01/16 03:02:24;;;;;;;4.40;3.08;;;5.00;99.90;;;;;;5089835;28;20032;-52
2024/01/16 03:04:50;;;;;;;3.67;2.90;;;5.10;99.90;;;;;;5089320;28;20506;-52
2024/01/16 03:07:16;;;;;;;8.10;6.15;;;5.00;99.90;;;;;;5089610;28;20036;-52
2024/01/16 03:09:41;;;;;;;5.57;4.25;;;5.00;99.90;;;;;;5107171;28;20726;-53
2024/01/16 03:12:07;;;;;;;4.40;3.38;;;5.00;99.90;;;;;;5112258;28;20107;-52
2024/01/16 03:14:34;;;;;;;3.50;2.80;;;5.00;99.90;;;;;;5112349;28;20024;-52
2024/01/16 03:17:03;;;;;;;3.38;2.25;;;5.00;99.90;;;;;;5112587;28;20145;-53
2024/01/16 03:19:29;;;;;;;4.70;3.17;;;5.10;99.90;;;;;;5075942;28;20395;-53
2024/01/16 03:21:55;;;;;;;3.92;2.90;;;4.80;99.90;;;;;;5111849;28;20040;-54
2024/01/16 03:24:21;;;;;;;5.68;3.67;;;4.90;99.90;;;;;;5112214;28;20024;-54
2024/01/16 03:26:47;;;;;;;6.38;4.47;;;4.60;99.90;;;;;;5112291;28;20077;-53
2024/01/16 03:29:12;;;;;;;7.70;5.00;;;4.70;99.90;;;;;;5075259;28;20075;-53
2024/01/16 03:31:38;;;;;;;5.35;4.40;;;;;;;;;;5111692;28;20023;-51
2024/01/16 03:34:04;;;;;;;7.05;4.80;;;4.10;99.90;;;;;;5111888;28;20085;-52
2024/01/16 03:36:30;;;;;;;11.73;6.47;;;4.20;99.90;;;;;;5111809;28;20500;-51
2024/01/16 03:38:56;;;;;;;11.82;7.90;;;4.40;99.90;;;;;;5111856;28;20040;-53
2024/01/16 03:41:21;;;;;;;9.27;6.00;;;4.70;99.90;;;;;;5075922;28;20130;-51
2024/01/16 03:43:47;;;;;;;7.72;4.82;;;;;;;;;;5111974;28;20495;-53
2024/01/16 03:46:13;;;;;;;10.70;6.90;;;4.80;99.90;;;;;;5111736;28;20042;-53
2024/01/16 03:48:39;;;;;;;5.72;3.88;;;5.00;99.90;;;;;;5111726;28;20024;-53
2024/01/16 03:51:06;;;;;;;38.28;20.52;;;5.20;99.90;;;;;;5111712;28;20043;-51
2024/01/16 03:53:32;;;;;;;98.43;43.72;;;5.30;99.90;;;;;;5111510;28;20035;-52
2024/01/16 03:55:58;;;;;;;54.38;26.13;;;5.40;99.90;;;;;;5110873;28;20091;-54
2024/01/16 03:58:24;;;;;;;15.93;8.32;;;5.40;99.90;;;;;;5111158;28;20027;-53
2024/01/16 04:00:51;;;;;;;34.40;17.08;;;5.50;99.90;;;;;;5111596;28;20102;-51
2024/01/16 04:03:17;;;;;;;19.20;10.57;;;5.50;99.90;;;;;;5075359;28;20127;-51
2024/01/16 04:05:42;;;;;;;21.27;12.40;;;5.50;99.90;;;;;;5111540;28;20106;-52
2024/01/16 04:08:08;;;;;;;12.00;7.43;;;5.60;99.90;;;;;;5111380;28;20110;-52
2024/01/16 04:10:34;;;;;;;20.90;12.93;;;5.60;99.90;;;;;;5111461;28;20027;-51
2024/01/16 04:13:01;;;;;;;12.00;7.18;;;4.90;99.90;;;;;;5111694;28;20597;-52
2024/01/16 04:15:28;;;;;;;12.77;6.72;;;5.70;99.90;;;;;;5111773;28;20023;-51
2024/01/16 04:17:54;;;;;;;4.60;3.30;;;5.70;99.90;;;;;;5111524;28;20035;-51
2024/01/16 04:20:20;;;;;;;11.77;7.43;;;5.70;99.90;;;;;;5111743;28;20046;-51
2024/01/16 04:22:46;;;;;;;8.57;5.22;;;5.70;99.90;;;;;;5111400;28;20016;-54
2024/01/16 04:25:12;;;;;;;5.63;3.85;;;5.70;99.90;;;;;;5111196;28;20089;-52
2024/01/16 04:27:37;;;;;;;5.50;4.03;;;5.60;99.90;;;;;;5111408;28;20110;-52
2024/01/16 04:30:04;;;;;;;5.32;3.83;;;5.60;99.90;;;;;;5111365;28;20033;-52
2024/01/16 04:32:29;;;;;;;6.43;4.70;;;5.70;99.90;;;;;;5041614;28;20386;-51
2024/01/16 04:34:55;;;;;;;9.57;5.53;;;5.70;99.90;;;;;;5111249;28;20066;-52
2024/01/16 04:37:21;;;;;;;7.70;4.93;;;;;;;;;;5111265;28;20031;-52
2024/01/16 04:39:47;;;;;;;8.35;5.93;;;5.00;99.90;;;;;;5111175;28;20042;-52
2024/01/16 04:42:12;;;;;;;8.50;5.65;;;5.20;99.90;;;;;;5115218;28;20503;-53
2024/01/16 04:44:38;;;;;;;7.13;4.90;;;5.10;99.90;;;;;;5115399;28;20051;-53
2024/01/16 04:47:04;;;;;;;7.25;4.82;;;5.20;99.90;;;;;;5115398;28;20031;-53
2024/01/16 04:49:30;;;;;;;6.75;4.78;;;5.00;99.90;;;;;;5115041;28;20023;-51
2024/01/16 04:51:55;;;;;;;7.10;5.10;;;4.90;99.90;;;;;;5115687;28;20027;-51
2024/01/16 04:54:21;;;;;;;7.95;5.13;;;5.00;99.90;;;;;;5115155;28;20081;-51
2024/01/16 04:56:47;;;;;;;7.68;5.55;;;5.10;99.90;;;;;;5115098;28;20101;-53
2024/01/16 04:59:12;;;;;;;12.68;7.47;;;5.20;99.90;;;;;;5115118;28;20155;-51
2024/01/16 05:01:38;;;;;;;31.80;15.48;;;4.90;99.90;;;;;;5078757;28;20118;-52
2024/01/16 05:04:04;;;;;;;11.02;7.30;;;4.90;99.90;;;;;;5095484;28;20086;-52
2024/01/16 05:06:30;;;;;;;18.33;10.65;;;5.10;99.90;;;;;;5078447;28;20085;-51
2024/01/16 05:08:56;;;;;;;10.65;6.95;;;5.20;99.90;;;;;;5095525;28;20402;-53
2024/01/16 05:11:21;;;;;;;10.60;8.43;;;5.30;99.90;;;;;;5114952;28;20024;-53
2024/01/16 05:13:47;;;;;;;10.68;8.23;;;5.40;99.90;;;;;;5114781;28;20084;-52
2024/01/16 05:16:13;;;;;;;11.57;8.20;;;5.40;99.90;;;;;;5078354;28;20123;-51
2024/01/16 05:18:44;;;;;;;10.27;7.85;;;5.40;99.90;;;;;;5078117;28;20100;-53
2024/01/16 05:21:09;;;;;;;11.60;9.48;;;5.50;99.90;;;;;;5095247;28;20044;-53
2024/01/16 05:23:35;;;;;;;8.65;7.47;;;5.50;99.90;;;;;;5106449;28;20516;-52
2024/01/16 05:26:01;;;;;;;6.45;5.47;;;5.60;99.90;;;;;;5094327;28;20085;-51
2024/01/16 05:28:26;;;;;;;5.45;4.80;;;5.60;99.90;;;;;;5094165;28;20055;-51
2024/01/16 05:30:52;;;;;;;6.38;4.53;;;5.70;99.90;;;;;;5093945;28;20027;-52
2024/01/16 05:33:18;;;;;;;7.20;4.75;;;5.70;99.90;;;;;;5041524;28;20035;-53
2024/01/16 05:35:44;;;;;;;4.53;4.03;;;5.90;99.90;;;;;;5041179;28;20117;-52
2024/01/16 05:38:12;;;;;;;6.88;4.25;;;5.90;99.90;;;;;;5093795;28;20106;-53
2024/01/16 05:40:38;;;;;;;5.15;3.50;;;6.00;99.90;;;;;;5093839;28;20044;-54
2024/01/16 05:43:03;;;;;;;3.72;3.03;;;6.00;99.90;;;;;;5113954;28;20517;-51
2024/01/16 05:45:29;;;;;;;4.22;3.10;;;6.00;99.90;;;;;;5114214;28;20428;-53
2024/01/16 05:47:56;;;;;;;4.75;2.85;;;6.00;99.90;;;;;;5094825;28;20071;-54
2024/01/16 05:50:22;;;;;;;3.22;2.90;;;6.00;99.90;;;;;;5113997;28;20024;-52
2024/01/16 05:52:47;;;;;;;4.25;2.55;;;6.10;99.90;;;;;;5056671;28;20403;-51
2024/01/16 05:55:13;;;;;;;5.03;4.22;;;6.00;99.90;;;;;;5089719;28;20036;-53
2024/01/16 05:57:39;;;;;;;5.03;3.30;;;6.00;99.90;;;;;;5056094;28;20035;-52
2024/01/16 06:00:05;;;;;;;4.30;3.88;;;5.90;99.90;;;;;;5073070;28;20139;-51
2024/01/16 06:02:31;;;;;;;5.50;3.80;;;5.90;99.90;;;;;;5073076;28;20060;-54
2024/01/16 06:04:57;;;;;;;4.80;3.72;;;5.90;99.90;;;;;;5090865;28;20502;-52
2024/01/16 06:07:23;;;;;;;5.35;3.85;;;5.90;99.90;;;;;;5073709;28;20036;-51
2024/01/16 06:09:49;;;;;;;5.88;3.90;;;5.90;99.90;;;;;;5056275;28;20036;-53
2024/01/16 06:12:14;;;;;;;8.68;4.78;;;5.90;99.90;;;;;;5070149;28;20055;-52
2024/01/16 06:14:40;;;;;;;6.68;5.28;;;5.80;99.90;;;;;;5089811;28;20035;-51
2024/01/16 06:17:06;;;;;;;6.65;5.32;;;5.80;99.90;;;;;;5089801;28;20105;-53
2024/01/16 06:19:32;;;;;;;6.80;6.05;;;5.80;99.90;;;;;;5089799;28;20558;-51
2024/01/16 06:22:01;;;;;;;7.28;5.93;;;5.90;99.90;;;;;;5090076;28;20035;-52
2024/01/16 06:24:27;;;;;;;5.43;4.50;;;5.90;99.90;;;;;;5072416;28;20036;-53
2024/01/16 06:26:52;;;;;;;4.15;3.53;;;5.90;99.90;;;;;;5113670;28;20108;-52
2024/01/16 06:29:18;;;;;;;6.82;5.25;;;5.90;99.90;;;;;;5113266;28;20023;-53
2024/01/16 06:31:44;;;;;;;10.07;6.50;;;5.80;99.90;;;;;;5112711;28;20059;-51
2024/01/16 06:34:09;;;;;;;3.70;3.00;;;5.70;99.90;;;;;;5060367;28;20096;-53
2024/01/16 06:36:35;;;;;;;8.00;6.32;;;5.60;99.90;;;;;;5092801;28;20101;-52
2024/01/16 06:39:01;;;;;;;10.48;8.32;;;5.70;99.90;;;;;;5092494;28;20097;-52
2024/01/16 06:41:26;;;;;;;11.38;7.75;;;5.70;99.90;;;;;;5092764;28;20097;-53
2024/01/16 06:43:52;;;;;;;14.23;9.48;;;5.70;99.90;;;;;;5090285;28;20043;-52
2024/01/16 06:46:18;;;;;;;13.57;11.43;;;5.70;99.90;;;;;;5090322;28;20120;-52
2024/01/16 06:48:44;;;;;;;18.10;16.38;;;5.70;99.90;;;;;;5092381;28;20020;-51
2024/01/16 06:51:13;;;;;;;9.73;8.73;;;5.80;99.90;;;;;;5090256;28;20036;-51
2024/01/16 06:53:39;;;;;;;5.78;5.18;;;5.90;99.90;;;;;;5092615;28;20035;-52
2024/01/16 06:56:07;;;;;;;6.47;5.88;;;6.00;99.90;;;;;;5092470;28;20376;-52
2024/01/16 06:58:33;;;;;;;6.60;6.00;;;6.10;99.90;;;;;;5092273;28;20032;-51
2024/01/16 07:01:00;;;;;;;15.43;11.25;;;6.10;99.90;;;;;;5092372;28;20039;-53
2024/01/16 07:03:26;;;;;;;11.13;8.93;;;6.00;99.90;;;;;;5091727;28;20032;-52
2024/01/16 07:05:52;;;;;;;37.08;23.95;;;5.90;99.90;;;;;;5092251;28;20104;-52
2024/01/16 07:08:17;;;;;;;36.65;24.75;;;6.00;99.90;;;;;;5089527;28;20039;-52
2024/01/16 07:10:43;;;;;;;30.40;23.27;;;6.00;99.90;;;;;;5089478;28;20051;-52
2024/01/16 07:13:09;;;;;;;21.05;14.40;;;6.10;99.90;;;;;;5089533;28;20035;-52
2024/01/16 07:15:35;;;;;;;40.15;23.02;;;6.10;99.90;;;;;;5089552;28;20544;-53
2024/01/16 07:18:01;;;;;;;22.95;13.38;;;6.10;99.90;;;;;;5055746;28;20040;-53
2024/01/16 07:20:26;;;;;;;21.35;11.45;;;6.20;99.90;;;;;;5089355;28;20035;-53
2024/01/16 07:22:52;;;;;;;29.95;19.85;;;6.30;99.90;;;;;;5089280;28;20036;-51
2024/01/16 07:25:18;;;;;;;44.03;28.17;;;;;;;;;;5055754;28;20236;-51
2024/01/16 07:27:48;;;;;;;18.33;13.05;;;;;;;;;;5089113;28;20032;-51
2024/01/16 07:30:15;;;;;;;19.40;12.63;;;4.60;99.90;;;;;;5089411;28;20035;-51
2024/01/16 07:32:41;;;;;;;13.80;10.52;;;;;;;;;;5089237;28;20055;-53
2024/01/16 07:35:07;;;;;;;36.35;29.95;;;5.10;99.90;;;;;;5089053;28;20139;-52
2024/01/16 07:37:33;;;;;;;48.72;28.75;;;;;;;;;;5055327;28;20036;-52
2024/01/16 07:39:59;;;;;;;47.20;28.75;;;;;;;;;;5107046;28;20138;-52
2024/01/16 07:42:26;;;;;;;15.35;11.10;;;5.70;99.90;;;;;;5112024;28;20023;-53
2024/01/16 07:44:52;;;;;;;35.45;22.75;;;5.60;99.90;;;;;;5111731;28;20031;-52
2024/01/16 07:47:18;;;;;;;4.90;3.75;;;5.80;99.90;;;;;;5112046;28;20028;-52
2024/01/16 07:49:44;;;;;;;16.45;12.73;;;6.50;99.90;;;;;;5111970;28;20025;-53
2024/01/16 07:52:12;;;;;;;79.60;50.50;;;6.70;99.90;;;;;;5025767;28;20069;-51
2024/01/16 07:54:37;;;;;;;29.20;21.00;;;7.00;99.90;;;;;;5111661;28;20490;-51
2024/01/16 07:57:03;;;;;;;26.23;15.27;;;;;;;;;;5111652;28;20054;-52
2024/01/16 07:59:29;;;;;;;18.70;11.88;;;8.70;99.90;;;;;;5111625;28;20500;-51
2024/01/16 08:01:55;;;;;;;26.80;18.73;;;9.20;99.60;;;;;;5111493;28;20027;-52
2024/01/16 08:04:20;;;;;;;11.68;7.85;;;10.00;98.50;;;;;;5058892;28;20044;-53
2024/01/16 08:06:47;;;;;;;5.50;4.97;;;11.10;97.50;;;;;;5093438;28;20115;-51
2024/01/16 08:09:13;;;;;;;14.18;11.60;;;;;;;;;;5075815;28;20032;-51
2024/01/16 08:11:40;;;;;;;27.50;19.85;;;;;;;;;;5111588;28;20114;-52
2024/01/16 08:14:06;;;;;;;40.95;25.67;;;16.70;91.70;;;;;;5110869;28;20035;-54
2024/01/16 08:16:31;;;;;;;42.85;28.08;;;16.70;90.50;;;;;;5111491;28;20028;-52
2024/01/16 08:18:58;;;;;;;25.50;20.30;;;;;;;;;;5111439;28;20032;-51
2024/01/16 08:21:23;;;;;;;15.60;13.00;;;19.10;92.40;;;;;;5111535;28;20039;-51
2024/01/16 08:23:49;;;;;;;12.13;10.65;;;16.60;81.20;;;;;;5109544;28;20023;-50
2024/01/16 08:26:15;;;;;;;11.25;9.25;;;17.30;83.10;;;;;;5111460;28;20024;-50
2024/01/16 08:28:41;;;;;;;11.13;8.93;;;17.80;99.90;;;;;;5075205;28;20059;-49
2024/01/16 08:31:07;;;;;;;10.73;8.25;;;16.60;78.80;;;;;;5090774;28;20733;-52
2024/01/16 08:33:32;;;;;;;9.32;6.63;;;15.60;80.20;;;;;;5090598;28;20383;-52
2024/01/16 08:35:59;;;;;;;9.45;7.55;;;14.20;81.00;;;;;;5034625;28;20110;-52
2024/01/16 08:38:25;;;;;;;48.83;34.60;;;;;;;;;;5070688;28;20384;-54
2024/01/16 08:40:50;;;;;;;55.13;37.55;;;16.00;82.40;;;;;;5070412;28;20025;-52
2024/01/16 08:43:16;;;;;;;32.40;25.13;;;17.70;82.70;;;;;;5070679;28;20055;-54
2024/01/16 08:45:42;;;;;;;33.22;18.23;;;19.60;80.20;;;;;;5070470;28;20039;-53
2024/01/16 08:48:08;;;;;;;21.33;16.55;;;19.90;78.90;;;;;;5070658;28;20090;-54
2024/01/16 08:50:33;;;;;;;38.55;29.67;;;18.70;79.10;;;;;;5070568;28;20063;-51
2024/01/16 08:52:59;;;;;;;46.17;35.85;;;17.30;81.00;;;;;;5070778;28;20025;-53
2024/01/16 08:55:25;;;;;;;48.17;38.92;;;16.90;82.00;;;;;;5070611;28;20132;-51
2024/01/16 08:57:50;;;;;;;62.33;49.38;;;15.40;83.20;;;;;;5070327;28;20020;-51
2024/01/16 09:00:16;;;;;;;47.17;39.70;;;14.80;84.50;;;;;;5070142;28;20064;-51
2024/01/16 09:02:42;;;;;;;51.88;40.30;;;14.40;85.30;;;;;;5034950;28;20032;-50
2024/01/16 09:05:08;;;;;;;54.25;45.60;;;13.80;86.60;;;;;;5067969;28;20067;-51
2024/01/16 09:07:33;;;;;;;52.17;42.38;;;13.40;99.90;;;;;;5070499;28;20024;-52
2024/01/16 09:10:00;;;;;;;61.75;47.65;;;;;;;;;;5070282;28;20403;-50
2024/01/16 09:12:26;;;;;;;67.03;52.72;;;;;;;;;;5070801;28;20043;-50
2024/01/16 09:14:52;;;;;;;56.75;43.72;;;;;;;;;;5070097;28;20496;-51
2024/01/16 09:17:18;;;;;;;85.72;56.40;;;;;;;;;;5070205;28;20029;-52
2024/01/16 09:19:44;;;;;;;61.95;46.88;;;;;;;;;;5070424;28;20032;-50
2024/01/16 09:22:10;;;;;;;54.88;43.47;;;16.10;87.10;;;;;;5051254;28;20044;-51
2024/01/16 09:24:36;;;;;;;61.83;46.72;;;;;;;;;;5070135;28;20575;-52
2024/01/16 09:27:06;;;;;;;63.58;49.22;;;17.90;84.90;;;;;;5072216;28;20029;-52
2024/01/16 09:29:32;;;;;;;62.17;50.45;;;18.60;83.20;;;;;;5055454;28;20379;-51
2024/01/16 09:31:58;;;;;;;60.70;47.83;;;;;;;;;;5054954;28;20049;-50
2024/01/16 09:34:23;;;;;;;47.80;40.55;;;19.60;83.50;;;;;;5072894;28;20106;-50
2024/01/16 09:36:49;;;;;;;44.28;38.88;;;;;;;;;;5094020;28;20467;-51
2024/01/16 09:39:37;;;;;;;45.75;37.63;;;21.30;90.30;;;;;;5050898;28;20045;-49
2024/01/16 09:42:04;;;;;;;44.17;38.63;;;;;;;;;;5018370;28;20037;-51
2024/01/16 09:44:30;;;;;;;46.63;41.60;;;22.50;77.00;;;;;;5050806;28;20040;-49
2024/01/16 09:46:57;;;;;;;48.65;43.38;;;22.60;75.80;;;;;;5051137;28;20029;-51
2024/01/16 09:49:24;;;;;;;46.72;40.75;;;;;;;;;;5050826;28;20094;-50
2024/01/16 09:51:50;;;;;;;56.90;50.72;;;22.80;74.30;;;;;;5050903;28;20388;-49
2024/01/16 09:54:15;;;;;;;64.95;55.83;;;23.00;74.90;;;;;;5050616;28;20037;-50
2024/01/16 09:56:46;;;;;;;72.95;60.50;;;23.20;74.30;;;;;;5033895;28;20033;-50
2024/01/16 09:59:17;;;;;;;78.97;66.05;;;22.10;74.50;;;;;;5050695;28;20048;-50
2024/01/16 10:01:43;;;;;;;69.35;58.10;;;;;;;;;;5050718;28;20032;-51
2024/01/16 10:04:09;;;;;;;54.90;49.08;;;22.50;81.10;;;;;;5050548;28;20028;-50
2024/01/16 10:06:36;;;;;;;51.10;43.47;;;23.00;73.30;;;;;;5050268;28;20534;-50
2024/01/16 10:09:02;;;;;;;57.83;50.42;;;22.50;73.20;;;;;;5050356;28;20025;-50
2024/01/16 10:11:29;;;;;;;58.10;50.53;;;;;;;;;;5087062;28;20043;-50
2024/01/16 10:13:55;;;;;;;67.30;59.65;;;22.70;72.80;;;;;;5093094;28;20459;-49
2024/01/16 10:16:22;;;;;;;50.72;45.30;;;;;;;;;;4996805;28;20045;-49
2024/01/16 10:18:49;;;;;;;50.85;43.97;;;23.40;72.20;;;;;;5030001;28;20033;-50
2024/01/16 10:21:22;;;;;;;47.30;41.17;;;23.60;93.30;;;;;;5030296;28;20073;-48
2024/01/16 10:23:49;;;;;;;33.97;30.30;;;22.90;72.50;;;;;;5030168;28;20034;-50
2024/01/16 10:26:15;;;;;;;21.73;19.42;;;22.90;71.30;;;;;;5029970;28;20124;-49
2024/01/16 10:28:42;;;;;;;13.48;12.23;;;21.70;71.50;;;;;;5029915;28;20108;-50
2024/01/16 10:31:13;;;;;;;5.63;5.13;;;21.90;87.30;;;;;;5029991;28;20125;-49
2024/01/16 10:33:40;;;;;;;7.28;6.57;;;21.20;70.60;;;;;;5029838;28;20065;-49
2024/01/16 10:36:11;;;;;;;5.75;5.20;;;20.40;71.00;;;;;;5029677;28;20549;-50
2024/01/16 10:38:40;;;;;;;;;;;20.00;71.10;;;;;;5030078;28;20035;-51
2024/01/16 10:41:17;;;;;;;7.20;6.20;;;19.00;71.10;;;;;;5029786;28;19927;-50
2024/01/16 10:43:44;;;;;;;5.65;5.15;;;;;;;;;;5029575;28;20034;-51
2024/01/16 10:46:14;;;;;;;6.20;5.32;;;;;;;;;;5030244;28;20103;-51
2024/01/16 10:48:42;;;;;;;3.95;3.65;;;20.60;98.00;;;;;;5071966;28;20035;-50
2024/01/16 10:51:14;;;;;;;3.17;2.88;;;18.60;67.90;;;;;;5072115;28;20396;-49
2024/01/16 10:53:43;;;;;;;;;;;16.80;68.90;;;;;;5072314;28;20486;-51
2024/01/16 10:56:13;;;;;;;3.38;2.90;;;16.20;69.20;;;;;;5072020;28;19911;-50
2024/01/16 10:58:43;;;;;;;4.10;3.70;;;16.10;70.50;;;;;;5067993;28;20441;-48
2024/01/16 11:01:16;;;;;;;2.40;2.20;;;16.00;71.70;;;;;;5071815;28;20070;-50
2024/01/16 11:03:49;;;;;;;3.83;3.42;;;14.40;70.70;;;;;;5071813;28;20036;-50
2024/01/16 11:06:17;;;;;;;3.00;2.75;;;14.40;71.70;;;;;;5072049;28;20032;-49
2024/01/16 11:08:45;;;;;;;2.30;2.10;;;14.50;72.20;;;;;;5071814;28;20067;-50
2024/01/16 11:11:13;;;;;;;5.85;5.10;;;14.20;71.10;;;;;;5071574;28;20108;-49
2024/01/16 11:13:40;;;;;;;3.88;3.35;;;14.90;71.90;;;;;;5071296;28;20476;-50
2024/01/16 11:16:07;;;;;;;4.07;2.85;;;15.20;72.20;;;;;;5071573;28;20468;-49
2024/01/16 11:18:34;;;;;;;4.28;3.33;;;14.60;73.40;;;;;;5071648;28;20078;-50
2024/01/16 11:21:04;;;;;;;4.97;3.90;;;14.10;74.90;;;;;;5071424;28;20033;-50
2024/01/16 11:23:30;;;;;;;3.92;3.05;;;13.60;74.50;;;;;;5071232;28;20028;-50
2024/01/16 11:25:55;;;;;;;3.03;2.33;;;13.80;74.30;;;;;;5071135;28;20035;-49
2024/01/16 11:28:29;;;;;;;3.38;2.40;;;13.30;73.90;;;;;;5071261;28;20024;-52
2024/01/16 11:30:55;;;;;;;2.78;2.20;;;13.00;73.30;;;;;;5071480;28;20075;-53
2024/01/16 11:33:33;;;;;;;2.25;1.65;;;13.90;73.90;;;;;;5070773;28;20056;-51
2024/01/16 11:35:59;;;;;;;2.30;1.92;;;12.50;71.80;;;;;;5085248;28;20128;-52
2024/01/16 11:38:29;;;;;;;3.78;2.10;;;12.90;72.00;;;;;;5090830;28;20044;-51
2024/01/16 11:40:55;;;;;;;2.38;2.17;;;14.20;72.00;;;;;;5054292;28;20119;-51
2024/01/16 11:43:36;;;;;;;1.80;1.65;;;15.40;71.80;;;;;;5090504;28;20031;-53
2024/01/16 11:46:07;;;;;;;32.75;14.30;;;15.00;69.80;;;;;;5090651;28;20112;-50
2024/01/16 11:48:33;;;;;;;7.33;4.47;;;;;;;;;;5090278;28;20082;-51
2024/01/16 11:50:59;;;;;;;12.38;6.32;;;14.80;69.70;;;;;;5090171;28;20428;-50
2024/01/16 11:53:37;;;;;;;11.07;4.90;;;15.40;71.50;;;;;;5090424;28;20085;-52
2024/01/16 11:56:21;;;;;;;2.75;2.30;;;15.10;70.40;;;;;;5090302;28;20032;-51
2024/01/16 11:59:05;;;;;;;2.80;2.28;;;15.10;71.00;;;;;;5089946;28;20395;-51
2024/01/16 12:01:32;;;;;;;4.97;3.25;;;14.90;71.60;;;;;;5053974;28;20043;-51
2024/01/16 12:04:07;;;;;;;4.32;3.53;;;;;;;;;;5090638;28;20032;-51
2024/01/16 12:06:34;;;;;;;4.53;3.30;;;;;;;;;;5091053;28;20032;-50
2024/01/16 12:09:17;;;;;;;3.00;2.70;;;12.20;75.00;;;;;;5090817;28;20459;-50
2024/01/16 12:11:45;;;;;;;2.78;2.20;;;11.80;88.10;;;;;;5038338;28;20043;-52
2024/01/16 12:14:13;;;;;;;4.97;2.88;;;11.70;76.50;;;;;;5090875;28;20039;-51
2024/01/16 12:16:39;;;;;;;5.45;3.38;;;12.10;76.40;;;;;;5038467;28;20184;-51
2024/01/16 12:19:08;;;;;;;6.43;3.92;;;12.00;75.40;;;;;;5090827;28;20467;-51
2024/01/16 12:21:43;;;;;;;6.97;4.75;;;12.30;76.10;;;;;;5090683;28;20028;-51
2024/01/16 12:24:10;;;;;;;1.33;1.10;;;12.10;75.50;;;;;;5090656;28;20036;-49
2024/01/16 12:26:37;;;;;;;5.65;3.92;;;;;;;;;;5090628;28;20028;-52
2024/01/16 12:29:03;;;;;;;4.03;2.90;;;11.40;99.90;;;;;;5090678;28;20084;-51
2024/01/16 12:31:29;;;;;;;2.88;2.10;;;11.40;76.10;;;;;;5090820;28;20024;-51
2024/01/16 12:34:07;;;;;;;5.18;3.35;;;11.20;76.00;;;;;;5090476;28;20467;-52
2024/01/16 12:36:34;;;;;;;4.10;3.20;;;11.30;77.30;;;;;;5090339;28;20048;-51
2024/01/16 12:39:00;;;;;;;3.55;3.05;;;11.60;78.00;;;;;;5090400;28;20054;-50
2024/01/16 12:41:39;;;;;;;3.22;2.15;;;11.10;77.00;;;;;;5054831;28;20044;-50
2024/01/16 12:44:28;;;;;;;6.18;3.78;;;10.50;77.20;;;;;;5047695;28;20692;-50
2024/01/16 12:46:58;;;;;;;6.75;5.03;;;10.70;78.60;;;;;;5047743;28;20044;-50
2024/01/16 12:49:24;;;;;;;3.80;2.13;;;10.40;77.50;;;;;;5047699;28;20041;-51
2024/01/16 12:51:50;;;;;;;11.40;10.18;;;10.80;77.40;;;;;;5047768;28;20040;-50
2024/01/16 12:54:18;;;;;;;6.30;4.32;;;10.70;77.60;;;;;;5047755;28;20055;-50
2024/01/16 12:56:44;;;;;;;3.10;2.47;;;10.70;78.50;;;;;;5047745;28;20041;-51
2024/01/16 12:59:13;;;;;;;3.90;2.70;;;10.40;77.50;;;;;;5047646;28;20697;-50